Time;durP1;ratioP1;P1;durP2;ratioP2;P2;SDS_P1;SDS_P2;PMS_P1;PMS_P2;Temp;Humidity;BMP_temperature;BMP_pressure;BME280_temperature;BME280_humidity;BME280_pressure;Samples;Min_cycle;Max_cycle;Signal;HPM_P1;HPM_P2
2022/10/16 00:01:58;;;;;;;4.63;1.47;;;16.90;99.90;;;;;;5033987;28;20264;-71
2022/10/16 00:04:23;;;;;;;2.53;1.50;;;16.90;99.90;;;;;;5015851;28;20025;-70
2022/10/16 00:06:49;;;;;;;6.27;1.60;;;16.80;99.90;;;;;;5015431;28;20030;-70
2022/10/16 00:09:14;;;;;;;2.60;1.43;;;16.80;99.90;;;;;;5015053;28;20261;-69
2022/10/16 00:11:41;;;;;;;2.03;1.20;;;16.90;99.90;;;;;;5015415;28;20053;-69
2022/10/16 00:14:10;;;;;;;2.22;1.10;;;16.90;99.90;;;;;;5032420;28;20049;-69
2022/10/16 00:16:36;;;;;;;1.83;1.42;;;16.90;99.90;;;;;;5032582;28;20067;-70
2022/10/16 00:19:02;;;;;;;5.97;1.73;;;16.90;99.90;;;;;;5032725;28;20022;-69
2022/10/16 00:21:29;;;;;;;2.50;1.17;;;16.90;99.90;;;;;;5032483;28;20029;-68
2022/10/16 00:24:04;;;;;;;3.70;1.30;;;16.90;99.90;;;;;;5032340;28;20021;-69
2022/10/16 00:26:31;;;;;;;4.28;1.70;;;16.80;99.90;;;;;;5032297;28;20025;-69
2022/10/16 00:28:57;;;;;;;3.33;1.20;;;16.90;99.90;;;;;;5032434;28;20437;-70
2022/10/16 00:31:23;;;;;;;4.18;1.50;;;16.70;99.90;;;;;;5034313;28;20025;-69
2022/10/16 00:33:49;;;;;;;6.88;1.75;;;16.60;99.90;;;;;;5036018;28;20061;-69
2022/10/16 00:36:17;;;;;;;4.18;1.60;;;16.70;99.90;;;;;;5035973;28;20115;-70
2022/10/16 00:38:43;;;;;;;4.72;1.42;;;16.60;99.90;;;;;;5018029;28;20029;-69
2022/10/16 00:41:14;;;;;;;2.00;1.33;;;16.70;99.90;;;;;;5035739;28;20484;-69
2022/10/16 00:43:50;;;;;;;3.40;1.25;;;16.70;99.90;;;;;;5035730;28;20034;-69
2022/10/16 00:46:18;;;;;;;3.45;1.42;;;16.70;99.90;;;;;;5035681;28;20025;-69
2022/10/16 00:49:04;;;;;;;3.17;1.50;;;16.60;99.90;;;;;;5036530;28;20025;-70
2022/10/16 00:51:58;;;;;;;4.47;1.55;;;16.50;99.90;;;;;;5022039;28;20072;-69
2022/10/16 00:54:30;;;;;;;2.28;1.15;;;16.50;99.90;;;;;;5034312;28;20394;-69
2022/10/16 00:56:58;;;;;;;3.35;1.42;;;16.60;99.90;;;;;;5036854;28;20026;-69
2022/10/16 00:59:29;;;;;;;3.83;1.58;;;16.60;99.90;;;;;;5035942;28;20013;-68
2022/10/16 01:01:56;;;;;;;2.45;1.35;;;16.80;99.90;;;;;;5035650;28;20414;-69
2022/10/16 01:04:23;;;;;;;4.07;1.25;;;16.80;99.90;;;;;;5035436;28;20036;-69
2022/10/16 01:07:07;;;;;;;6.40;1.60;;;16.80;99.90;;;;;;5017547;28;20068;-69
2022/10/16 01:10:03;;;;;;;5.22;1.35;;;16.90;99.90;;;;;;5035661;28;20029;-70
2022/10/16 01:12:57;;;;;;;2.97;1.40;;;16.80;99.90;;;;;;5004300;28;20045;-69
2022/10/16 01:15:55;;;;;;;2.80;1.33;;;16.80;99.90;;;;;;5035051;28;20029;-70
2022/10/16 01:18:46;;;;;;;5.78;2.08;;;16.70;99.90;;;;;;5017000;28;20033;-69
2022/10/16 01:21:14;;;;;;;3.42;1.63;;;16.60;99.90;;;;;;5034981;28;20034;-70
2022/10/16 01:24:08;;;;;;;6.50;2.20;;;16.70;99.90;;;;;;5017306;28;20521;-69
2022/10/16 01:27:00;;;;;;;7.10;4.00;;;16.70;99.90;;;;;;5035093;28;20104;-70
2022/10/16 01:29:31;;;;;;;7.78;3.80;;;16.70;99.90;;;;;;5017127;28;20025;-69
2022/10/16 01:32:04;;;;;;;5.60;2.40;;;16.60;99.90;;;;;;5017015;28;20022;-70
2022/10/16 01:34:35;;;;;;;4.07;1.95;;;16.50;99.90;;;;;;5034909;28;20022;-70
2022/10/16 01:37:09;;;;;;;3.47;1.88;;;16.50;99.90;;;;;;5034939;28;20033;-70
2022/10/16 01:39:38;;;;;;;4.80;1.63;;;16.50;99.90;;;;;;5034760;28;20026;-70
2022/10/16 01:42:06;;;;;;;4.88;1.48;;;16.40;99.90;;;;;;5034085;28;20382;-70
2022/10/16 01:44:36;;;;;;;2.72;2.03;;;16.40;99.90;;;;;;5016865;28;20029;-70
2022/10/16 01:47:02;;;;;;;3.85;2.50;;;16.40;99.90;;;;;;5016812;28;20033;-70
2022/10/16 01:49:32;;;;;;;6.75;2.15;;;16.40;99.90;;;;;;5034686;28;20101;-70
2022/10/16 01:52:01;;;;;;;5.22;1.65;;;16.40;99.90;;;;;;5034432;28;20037;-70
2022/10/16 01:54:30;;;;;;;3.15;1.30;;;16.60;99.90;;;;;;5016492;28;20029;-70
2022/10/16 01:56:57;;;;;;;3.20;1.50;;;16.50;99.90;;;;;;5016496;28;20121;-70
2022/10/16 01:59:27;;;;;;;3.55;1.60;;;16.50;99.90;;;;;;5016448;28;20490;-70
2022/10/16 02:01:58;;;;;;;4.93;1.67;;;16.40;99.90;;;;;;5034168;28;20018;-70
2022/10/16 02:04:29;;;;;;;4.47;1.67;;;16.40;99.90;;;;;;5034212;28;20108;-70
2022/10/16 02:06:55;;;;;;;5.00;1.85;;;16.40;99.90;;;;;;5034215;28;20108;-70
2022/10/16 02:09:20;;;;;;;4.38;1.70;;;16.30;99.90;;;;;;5016265;28;20064;-70
2022/10/16 02:11:46;;;;;;;2.55;1.60;;;16.30;99.90;;;;;;5016194;28;20071;-70
2022/10/16 02:14:12;;;;;;;5.35;2.25;;;16.20;99.90;;;;;;5034163;28;20029;-70
2022/10/16 02:16:46;;;;;;;6.18;1.80;;;16.30;99.90;;;;;;5016242;28;20068;-70
2022/10/16 02:19:19;;;;;;;3.08;2.00;;;16.30;99.90;;;;;;5016219;28;20029;-70
2022/10/16 02:21:55;;;;;;;3.67;1.70;;;16.30;99.90;;;;;;5033882;28;20368;-69
2022/10/16 02:24:32;;;;;;;2.92;2.22;;;16.30;99.90;;;;;;5034395;28;20175;-69
2022/10/16 02:27:13;;;;;;;2.58;1.90;;;16.30;99.90;;;;;;5016899;28;20025;-70
2022/10/16 02:29:50;;;;;;;2.53;1.92;;;16.20;99.90;;;;;;5034439;28;20501;-69
2022/10/16 02:32:17;;;;;;;;;;;16.20;99.90;;;;;;5016631;28;20026;-69
2022/10/16 02:34:44;;;;;;;5.47;1.90;;;16.40;99.90;;;;;;5033731;28;20267;-69
2022/10/16 02:37:10;;;;;;;6.43;2.08;;;16.30;99.90;;;;;;5033678;28;20032;-69
2022/10/16 02:39:38;;;;;;;3.58;1.80;;;16.30;99.90;;;;;;5033618;28;20092;-69
2022/10/16 02:42:03;;;;;;;5.47;1.98;;;16.50;99.90;;;;;;5033467;28;20033;-69
2022/10/16 02:44:29;;;;;;;2.13;1.73;;;16.30;99.90;;;;;;5033468;28;20025;-69
2022/10/16 02:46:55;;;;;;;3.25;1.50;;;16.30;99.90;;;;;;5033924;28;20029;-69
2022/10/16 02:49:20;;;;;;;4.60;1.80;;;16.30;99.90;;;;;;5033670;28;20072;-69
2022/10/16 02:51:46;;;;;;;3.35;1.63;;;16.30;99.90;;;;;;5033535;28;20060;-69
2022/10/16 02:54:12;;;;;;;4.23;1.97;;;16.30;99.90;;;;;;5032372;28;20100;-69
2022/10/16 02:56:38;;;;;;;5.40;1.35;;;16.50;99.90;;;;;;5033386;28;20022;-69
2022/10/16 02:59:04;;;;;;;4.68;1.38;;;16.50;99.90;;;;;;5015603;28;20029;-70
2022/10/16 03:01:29;;;;;;;6.57;1.75;;;16.60;99.90;;;;;;5033186;28;20075;-69
2022/10/16 03:03:55;;;;;;;5.77;2.07;;;16.60;99.90;;;;;;5033240;28;20036;-69
2022/10/16 03:06:20;;;;;;;4.33;1.40;;;16.50;99.90;;;;;;5033458;28;20444;-70
2022/10/16 03:08:46;;;;;;;4.35;1.23;;;16.50;99.90;;;;;;5033431;28;20029;-69
2022/10/16 03:11:11;;;;;;;2.97;1.27;;;16.50;99.90;;;;;;5033149;28;20057;-70
2022/10/16 03:13:37;;;;;;;4.60;1.50;;;16.50;99.90;;;;;;5033536;28;20715;-70
2022/10/16 03:16:02;;;;;;;1.30;1.20;;;16.40;99.90;;;;;;5033111;28;20026;-70
2022/10/16 03:18:28;;;;;;;4.40;1.27;;;16.30;99.90;;;;;;5033474;28;20025;-70
2022/10/16 03:20:53;;;;;;;3.40;1.33;;;16.30;99.90;;;;;;5033006;28;20084;-70
2022/10/16 03:23:19;;;;;;;2.50;1.30;;;16.30;99.90;;;;;;5032935;28;20261;-69
2022/10/16 03:25:44;;;;;;;7.03;1.63;;;16.20;99.90;;;;;;5032986;28;20026;-70
2022/10/16 03:28:10;;;;;;;2.17;1.50;;;16.20;99.90;;;;;;5033013;28;20260;-70
2022/10/16 03:30:36;;;;;;;2.92;1.42;;;16.20;99.90;;;;;;5033241;28;20028;-70
2022/10/16 03:33:01;;;;;;;2.30;1.30;;;16.10;99.90;;;;;;5033060;28;20029;-69
2022/10/16 03:35:27;;;;;;;5.13;1.40;;;16.10;99.90;;;;;;5032961;28;20159;-69
2022/10/16 03:37:52;;;;;;;2.13;1.60;;;16.10;99.90;;;;;;5033370;28;20295;-69
2022/10/16 03:40:18;;;;;;;6.93;1.80;;;16.10;99.90;;;;;;5033072;28;20557;-69
2022/10/16 03:42:44;;;;;;;6.68;1.88;;;16.00;99.90;;;;;;5033120;28;20037;-69
2022/10/16 03:45:10;;;;;;;2.22;1.58;;;16.00;99.90;;;;;;5032803;28;20033;-69
2022/10/16 03:47:36;;;;;;;;;;;16.00;99.90;;;;;;5015536;28;20069;-70
2022/10/16 03:50:03;;;;;;;3.47;1.65;;;16.00;99.90;;;;;;5032714;28;19912;-70
2022/10/16 03:52:28;;;;;;;3.33;1.40;;;16.00;99.90;;;;;;5032566;28;20430;-70
2022/10/16 03:54:54;;;;;;;8.53;1.93;;;16.00;99.90;;;;;;5032978;28;20021;-70
2022/10/16 03:57:20;;;;;;;3.47;1.60;;;16.00;99.90;;;;;;5032875;28;20260;-70
2022/10/16 03:59:45;;;;;;;;;;;16.00;99.90;;;;;;5015694;28;20275;-70
2022/10/16 04:02:11;;;;;;;2.78;1.83;;;16.00;99.90;;;;;;5034123;28;19909;-68
2022/10/16 04:04:36;;;;;;;4.97;2.60;;;16.00;99.90;;;;;;5034389;28;20028;-68
2022/10/16 04:07:02;;;;;;;3.77;2.37;;;16.00;99.90;;;;;;5036387;28;20296;-67
2022/10/16 04:09:28;;;;;;;3.40;1.90;;;16.00;99.90;;;;;;5036677;28;20060;-67
2022/10/16 04:11:54;;;;;;;5.45;2.20;;;16.00;99.90;;;;;;5036187;28;20071;-67
2022/10/16 04:14:19;;;;;;;6.10;4.20;;;16.00;99.90;;;;;;5036555;28;20470;-67
2022/10/16 04:16:45;;;;;;;4.17;3.00;;;16.00;99.90;;;;;;5036408;28;20761;-66
2022/10/16 04:19:11;;;;;;;7.80;2.80;;;16.00;99.90;;;;;;5036320;28;20144;-66
2022/10/16 04:21:37;;;;;;;5.68;2.38;;;16.10;99.90;;;;;;5018432;28;20257;-66
2022/10/16 04:24:03;;;;;;;3.20;2.10;;;16.20;99.90;;;;;;5018633;28;20060;-66
2022/10/16 04:26:29;;;;;;;3.35;1.90;;;16.20;99.90;;;;;;5036110;28;20033;-66
2022/10/16 04:28:55;;;;;;;4.22;1.88;;;16.30;99.90;;;;;;5018256;28;20390;-66
2022/10/16 04:31:20;;;;;;;3.65;1.95;;;16.30;99.90;;;;;;5018150;28;20026;-68
2022/10/16 04:33:46;;;;;;;2.28;1.80;;;16.30;99.90;;;;;;5035868;28;20039;-67
2022/10/16 04:36:12;;;;;;;3.00;2.13;;;16.30;99.90;;;;;;5035942;28;20025;-67
2022/10/16 04:38:39;;;;;;;2.53;2.00;;;16.30;99.90;;;;;;5036166;28;20301;-67
2022/10/16 04:41:05;;;;;;;9.73;2.70;;;16.20;99.90;;;;;;5035866;28;20453;-67
2022/10/16 04:43:31;;;;;;;3.22;2.03;;;16.20;99.90;;;;;;5018526;28;20034;-67
2022/10/16 04:45:56;;;;;;;2.57;1.67;;;16.20;99.90;;;;;;5036021;28;20040;-68
2022/10/16 04:48:22;;;;;;;2.95;1.90;;;16.20;99.90;;;;;;5036192;28;20018;-67
2022/10/16 04:50:48;;;;;;;4.93;2.20;;;16.20;99.90;;;;;;5018227;28;20059;-68
2022/10/16 04:53:13;;;;;;;5.43;2.00;;;16.10;99.90;;;;;;5018626;28;20364;-67
2022/10/16 04:55:41;;;;;;;4.47;1.95;;;16.20;99.90;;;;;;5036684;28;20280;-68
2022/10/16 04:58:06;;;;;;;4.60;2.28;;;16.20;99.90;;;;;;5035945;28;20025;-67
2022/10/16 05:00:32;;;;;;;2.80;2.30;;;16.10;99.90;;;;;;5035632;28;20037;-67
2022/10/16 05:02:59;;;;;;;3.63;1.92;;;16.20;99.90;;;;;;5035361;28;20048;-67
2022/10/16 05:05:25;;;;;;;5.25;2.00;;;16.10;99.90;;;;;;5017717;28;20022;-67
2022/10/16 05:07:50;;;;;;;3.83;2.15;;;16.10;99.90;;;;;;5035656;28;20030;-67
2022/10/16 05:10:16;;;;;;;4.83;2.20;;;16.10;99.90;;;;;;5035623;28;20025;-68
2022/10/16 05:12:41;;;;;;;3.20;2.30;;;16.00;99.90;;;;;;5035305;28;20624;-67
2022/10/16 05:15:07;;;;;;;4.63;2.30;;;16.00;99.90;;;;;;5035471;28;20033;-67
2022/10/16 05:17:33;;;;;;;4.50;2.30;;;16.00;99.90;;;;;;5034493;28;20288;-67
2022/10/16 05:19:59;;;;;;;2.70;2.07;;;16.00;99.90;;;;;;5035450;28;20066;-66
2022/10/16 05:22:24;;;;;;;6.68;2.28;;;16.00;99.90;;;;;;5017288;28;20351;-67
2022/10/16 05:24:50;;;;;;;3.67;2.17;;;16.00;99.90;;;;;;5018183;28;20029;-67
2022/10/16 05:27:18;;;;;;;3.03;2.13;;;16.00;99.90;;;;;;5035189;28;20817;-67
2022/10/16 05:29:48;;;;;;;3.88;2.40;;;16.00;99.90;;;;;;5035072;28;20025;-67
2022/10/16 05:32:15;;;;;;;4.40;2.08;;;16.00;99.90;;;;;;5035160;28;20029;-67
2022/10/16 05:34:41;;;;;;;4.70;2.15;;;16.00;99.90;;;;;;5016978;28;20036;-67
2022/10/16 05:37:07;;;;;;;6.78;2.63;;;16.00;99.90;;;;;;5034885;28;20108;-67
2022/10/16 05:39:33;;;;;;;3.15;2.38;;;16.00;99.90;;;;;;5035147;28;20445;-68
2022/10/16 05:41:58;;;;;;;3.70;1.83;;;16.00;99.90;;;;;;5034896;28;20045;-67
2022/10/16 05:44:24;;;;;;;5.63;2.40;;;16.00;99.90;;;;;;5034819;28;20033;-68
2022/10/16 05:46:49;;;;;;;4.40;1.97;;;16.00;99.90;;;;;;5035008;28;20248;-68
2022/10/16 05:49:15;;;;;;;3.60;1.70;;;16.10;99.90;;;;;;5033013;28;20634;-67
2022/10/16 05:51:41;;;;;;;3.90;2.00;;;16.10;99.90;;;;;;5024238;28;20287;-67
2022/10/16 05:54:07;;;;;;;;;;;16.10;99.90;;;;;;5035007;28;20291;-67
2022/10/16 05:56:32;;;;;;;4.50;2.20;;;16.10;99.90;;;;;;5034219;28;20361;-67
2022/10/16 05:58:58;;;;;;;8.00;2.50;;;16.10;99.90;;;;;;5034596;28;20021;-67
2022/10/16 06:01:24;;;;;;;6.07;2.17;;;16.10;99.90;;;;;;5034556;28;20030;-68
2022/10/16 06:03:51;;;;;;;4.60;2.25;;;16.10;99.90;;;;;;5032599;28;20025;-70
2022/10/16 06:06:20;;;;;;;5.05;1.85;;;16.00;99.90;;;;;;5034222;28;20021;-71
2022/10/16 06:08:47;;;;;;;4.22;1.88;;;16.00;99.90;;;;;;5033112;28;20483;-68
2022/10/16 06:11:16;;;;;;;3.42;1.65;;;16.00;99.90;;;;;;5034263;28;20036;-67
2022/10/16 06:13:42;;;;;;;3.55;1.77;;;16.00;99.90;;;;;;5034418;28;20108;-69
2022/10/16 06:16:09;;;;;;;5.05;1.40;;;16.00;99.90;;;;;;5034306;28;20096;-70
2022/10/16 06:18:35;;;;;;;1.83;1.35;;;16.10;99.90;;;;;;5034201;28;20036;-69
2022/10/16 06:21:11;;;;;;;5.03;1.30;;;16.00;99.90;;;;;;5034088;28;20030;-70
2022/10/16 06:23:37;;;;;;;3.30;1.30;;;16.10;99.90;;;;;;5034286;28;20029;-69
2022/10/16 06:26:11;;;;;;;3.28;1.50;;;16.10;99.90;;;;;;5034306;28;20024;-67
2022/10/16 06:28:37;;;;;;;6.65;1.60;;;16.00;99.90;;;;;;5034101;28;20618;-69
2022/10/16 06:31:04;;;;;;;4.03;1.30;;;16.10;99.90;;;;;;5033965;28;20022;-66
2022/10/16 06:33:29;;;;;;;4.85;1.40;;;16.10;99.90;;;;;;5033931;28;20033;-67
2022/10/16 06:36:03;;;;;;;2.83;1.55;;;16.10;99.90;;;;;;5034252;28;20029;-66
2022/10/16 06:38:28;;;;;;;7.20;1.52;;;16.10;99.90;;;;;;5033700;28;20029;-66
2022/10/16 06:40:54;;;;;;;4.70;1.60;;;16.10;99.90;;;;;;5034050;28;20026;-70
2022/10/16 06:43:19;;;;;;;8.65;2.38;;;16.20;99.90;;;;;;5033957;28;20025;-71
2022/10/16 06:45:52;;;;;;;5.93;1.70;;;16.20;99.90;;;;;;5034280;28;20053;-68
2022/10/16 06:48:18;;;;;;;6.70;2.15;;;16.20;99.90;;;;;;5033972;28;20118;-68
2022/10/16 06:50:43;;;;;;;8.93;1.75;;;16.30;99.90;;;;;;5036625;28;20030;-67
2022/10/16 06:53:09;;;;;;;2.50;1.37;;;16.30;99.90;;;;;;5040860;28;20091;-67
2022/10/16 06:55:34;;;;;;;5.53;1.50;;;16.30;99.90;;;;;;5041299;28;20284;-67
2022/10/16 06:58:00;;;;;;;9.18;2.38;;;16.30;99.90;;;;;;5037540;28;20018;-66
2022/10/16 07:00:25;;;;;;;8.30;1.80;;;16.40;99.90;;;;;;5039152;28;20029;-66
2022/10/16 07:02:51;;;;;;;3.43;1.70;;;16.40;99.90;;;;;;5039191;28;20029;-66
2022/10/16 07:05:16;;;;;;;7.63;1.50;;;16.40;99.90;;;;;;5042483;28;20264;-68
2022/10/16 07:07:42;;;;;;;2.37;1.47;;;16.60;99.90;;;;;;5037668;28;20124;-66
2022/10/16 07:10:08;;;;;;;7.70;1.58;;;16.60;99.90;;;;;;5040598;28;20084;-66
2022/10/16 07:12:33;;;;;;;3.92;1.88;;;16.70;99.90;;;;;;5040310;28;20124;-67
2022/10/16 07:14:59;;;;;;;3.40;1.60;;;16.80;99.90;;;;;;5037956;28;20116;-66
2022/10/16 07:17:24;;;;;;;3.15;1.52;;;16.90;99.90;;;;;;5037575;28;20045;-67
2022/10/16 07:19:52;;;;;;;4.03;1.65;;;17.00;99.90;;;;;;5037904;28;20037;-66
2022/10/16 07:22:18;;;;;;;5.88;1.70;;;17.00;99.90;;;;;;5036621;28;20022;-67
2022/10/16 07:24:44;;;;;;;5.78;1.70;;;17.00;99.90;;;;;;5038420;28;20033;-66
2022/10/16 07:27:10;;;;;;;4.82;1.50;;;17.00;99.90;;;;;;5039963;28;20499;-66
2022/10/16 07:29:35;;;;;;;4.07;1.88;;;17.10;99.90;;;;;;5039669;28;20067;-66
2022/10/16 07:32:02;;;;;;;4.53;1.42;;;17.30;99.90;;;;;;5037693;28;20031;-66
2022/10/16 07:34:27;;;;;;;8.45;1.60;;;17.60;99.90;;;;;;5034733;28;20025;-66
2022/10/16 07:36:53;;;;;;;3.22;1.55;;;17.60;99.90;;;;;;5034334;28;20053;-67
2022/10/16 07:39:18;;;;;;;4.47;1.70;;;17.60;99.90;;;;;;5032703;28;20021;-66
2022/10/16 07:41:44;;;;;;;5.95;1.63;;;17.60;99.90;;;;;;5036317;28;20102;-67
2022/10/16 07:44:10;;;;;;;4.30;1.52;;;17.40;99.90;;;;;;5037404;28;20029;-66
2022/10/16 07:46:36;;;;;;;4.75;1.63;;;17.40;99.90;;;;;;5037747;28;20030;-66
2022/10/16 07:49:02;;;;;;;3.92;1.35;;;17.30;99.90;;;;;;5035742;28;20037;-67
2022/10/16 07:51:28;;;;;;;2.85;1.60;;;17.40;99.90;;;;;;5035461;28;20398;-66
2022/10/16 07:53:53;;;;;;;8.43;1.87;;;17.40;99.90;;;;;;5037234;28;20108;-66
2022/10/16 07:56:20;;;;;;;6.32;1.98;;;17.40;99.90;;;;;;5037065;28;20664;-68
2022/10/16 07:58:45;;;;;;;;;;;17.40;99.90;;;;;;5037891;28;20060;-72
2022/10/16 08:01:14;;;;;;;5.45;2.05;;;17.50;99.90;;;;;;5037818;28;19909;-70
2022/10/16 08:03:42;;;;;;;4.35;1.80;;;17.60;99.90;;;;;;5041988;28;20022;-72
2022/10/16 08:06:08;;;;;;;3.20;1.90;;;17.60;99.90;;;;;;5047307;28;20105;-69
2022/10/16 08:08:35;;;;;;;2.55;1.67;;;17.50;99.90;;;;;;5045858;28;20471;-67
2022/10/16 08:11:03;;;;;;;2.47;1.70;;;17.70;99.90;;;;;;5044361;28;20032;-70
2022/10/16 08:13:29;;;;;;;3.60;1.40;;;17.80;99.90;;;;;;5037216;28;20112;-69
2022/10/16 08:15:55;;;;;;;4.35;1.55;;;17.80;99.90;;;;;;5037437;28;20105;-69
2022/10/16 08:18:20;;;;;;;;;;;17.80;99.90;;;;;;5037073;28;20021;-71
2022/10/16 08:20:46;;;;;;;8.60;1.90;;;17.90;99.90;;;;;;5035335;28;20400;-68
2022/10/16 08:23:12;;;;;;;5.95;3.25;;;17.80;99.90;;;;;;5036544;28;20564;-69
2022/10/16 08:25:39;;;;;;;8.75;3.08;;;17.90;99.90;;;;;;5035236;28;20140;-69
2022/10/16 08:28:07;;;;;;;;;;;17.90;99.90;;;;;;5037337;28;20402;-67
2022/10/16 08:30:33;;;;;;;5.68;2.10;;;17.90;99.90;;;;;;5036403;28;20277;-68
2022/10/16 08:32:59;;;;;;;4.68;1.65;;;18.10;99.90;;;;;;5035078;28;20397;-67
2022/10/16 08:35:24;;;;;;;5.32;1.83;;;18.20;99.90;;;;;;5036361;28;20109;-67
2022/10/16 08:37:53;;;;;;;3.53;1.98;;;18.20;99.90;;;;;;5035151;28;20024;-68
2022/10/16 08:40:32;;;;;;;7.90;1.85;;;18.40;99.90;;;;;;5036442;28;20030;-67
2022/10/16 08:43:27;;;;;;;3.35;1.33;;;18.50;99.90;;;;;;5034554;28;20026;-67
2022/10/16 08:46:05;;;;;;;8.25;1.80;;;18.80;99.90;;;;;;5035873;28;20025;-67
2022/10/16 08:48:43;;;;;;;3.60;1.77;;;18.70;99.90;;;;;;5036746;28;20024;-67
2022/10/16 08:51:13;;;;;;;1.88;1.38;;;18.70;99.90;;;;;;5036265;28;20053;-68
2022/10/16 08:53:42;;;;;;;2.95;1.30;;;18.80;99.90;;;;;;5035858;28;20059;-68
2022/10/16 08:56:08;;;;;;;5.25;2.47;;;19.00;99.90;;;;;;5035164;28;20021;-67
2022/10/16 08:58:33;;;;;;;10.05;1.90;;;18.90;99.90;;;;;;5036165;28;20022;-68
2022/10/16 09:01:03;;;;;;;4.35;2.13;;;18.90;99.90;;;;;;5035925;28;20065;-68
2022/10/16 09:03:52;;;;;;;7.03;1.67;;;19.00;99.90;;;;;;5034704;28;20025;-68
2022/10/16 09:06:44;;;;;;;5.05;1.40;;;19.10;99.90;;;;;;5035050;28;20028;-67
2022/10/16 09:09:27;;;;;;;7.43;1.65;;;19.40;99.90;;;;;;5036360;28;20482;-68
2022/10/16 09:12:19;;;;;;;3.42;1.45;;;19.50;99.90;;;;;;5034656;28;20022;-67
2022/10/16 09:14:50;;;;;;;5.28;1.63;;;19.60;99.90;;;;;;5036088;28;20040;-67
2022/10/16 09:17:52;;;;;;;2.80;1.58;;;19.70;99.90;;;;;;5035854;28;20025;-67
2022/10/16 09:20:57;;;;;;;13.30;2.10;;;19.60;99.90;;;;;;5035945;28;20025;-69
2022/10/16 09:23:26;;;;;;;4.57;1.50;;;19.60;99.90;;;;;;5005261;28;20053;-70
2022/10/16 09:25:54;;;;;;;5.22;1.70;;;19.60;99.90;;;;;;5035371;28;20022;-68
2022/10/16 09:28:19;;;;;;;5.70;1.60;;;19.70;99.90;;;;;;5035600;28;20549;-67
2022/10/16 09:30:48;;;;;;;2.33;1.50;;;19.80;99.90;;;;;;5035528;28;20115;-68
2022/10/16 09:33:15;;;;;;;4.47;1.67;;;19.80;99.90;;;;;;5035135;28;20025;-68
2022/10/16 09:35:44;;;;;;;3.00;1.55;;;19.70;99.90;;;;;;5035713;28;20083;-68
2022/10/16 09:38:28;;;;;;;4.75;1.63;;;19.50;99.90;;;;;;5035283;28;20018;-66
2022/10/16 09:40:57;;;;;;;4.45;1.48;;;19.50;99.90;;;;;;5035625;28;20097;-68
2022/10/16 09:43:30;;;;;;;2.83;1.48;;;19.60;99.90;;;;;;5035103;28;20018;-69
2022/10/16 09:46:01;;;;;;;5.70;1.70;;;19.90;99.90;;;;;;5035587;28;20029;-68
2022/10/16 09:48:43;;;;;;;5.82;1.80;;;20.00;99.90;;;;;;5035247;28;20421;-69
2022/10/16 09:51:32;;;;;;;4.30;2.20;;;20.20;99.90;;;;;;5035306;28;20034;-68
2022/10/16 09:54:10;;;;;;;5.75;1.95;;;20.60;99.90;;;;;;5035270;28;20084;-67
2022/10/16 09:56:39;;;;;;;5.40;1.90;;;20.90;99.90;;;;;;5033301;28;20468;-68
2022/10/16 09:59:19;;;;;;;4.57;2.03;;;21.30;99.90;;;;;;5034806;28;20025;-67
2022/10/16 10:01:49;;;;;;;4.15;1.52;;;21.90;99.90;;;;;;5035259;28;20029;-68
2022/10/16 10:04:15;;;;;;;6.13;1.88;;;22.40;99.90;;;;;;5034013;28;20068;-68
2022/10/16 10:06:45;;;;;;;2.40;1.50;;;22.50;99.90;;;;;;5033451;28;20022;-68
2022/10/16 10:09:21;;;;;;;11.85;1.63;;;22.80;99.90;;;;;;5034527;28;20034;-68
2022/10/16 10:11:57;;;;;;;4.22;1.60;;;24.90;99.90;;;;;;5034818;28;20140;-68
2022/10/16 10:14:31;;;;;;;3.67;1.25;;;27.00;99.90;;;;;;5033203;28;20486;-68
2022/10/16 10:17:11;;;;;;;3.45;1.50;;;29.10;99.90;;;;;;5034661;28;20132;-68
2022/10/16 10:19:49;;;;;;;6.00;1.60;;;30.80;97.70;;;;;;5033015;28;20026;-68
2022/10/16 10:22:22;;;;;;;4.50;1.77;;;29.80;96.90;;;;;;5034536;28;20026;-68
2022/10/16 10:25:07;;;;;;;3.35;1.38;;;29.00;97.30;;;;;;5035107;28;20060;-68
2022/10/16 10:27:58;;;;;;;7.95;1.88;;;30.30;96.90;;;;;;5034279;28;20025;-68
2022/10/16 10:30:57;;;;;;;4.13;2.00;;;30.80;95.50;;;;;;5034206;28;20032;-68
2022/10/16 10:33:34;;;;;;;3.90;1.40;;;31.60;94.10;;;;;;5033836;28;20026;-68
2022/10/16 10:36:04;;;;;;;3.33;1.30;;;31.80;93.90;;;;;;5034102;28;20032;-68
2022/10/16 10:38:57;;;;;;;7.30;1.60;;;31.30;93.70;;;;;;5034348;28;20028;-70
2022/10/16 10:41:54;;;;;;;8.07;2.20;;;31.40;92.60;;;;;;5032498;28;20068;-70
2022/10/16 10:44:47;;;;;;;2.13;1.15;;;31.20;92.90;;;;;;5033702;28;20159;-71
2022/10/16 10:47:45;;;;;;;4.47;1.35;;;30.30;93.30;;;;;;5033854;28;20030;-69
2022/10/16 10:50:26;;;;;;;6.75;1.48;;;29.00;94.60;;;;;;5035079;28;20114;-70
2022/10/16 10:52:54;;;;;;;4.72;1.30;;;28.10;96.50;;;;;;5033671;28;20167;-70
2022/10/16 10:55:31;;;;;;;8.98;2.03;;;27.50;97.50;;;;;;5033899;28;20026;-70
2022/10/16 10:58:25;;;;;;;3.97;1.65;;;26.80;98.40;;;;;;5033497;28;20021;-71
2022/10/16 11:01:05;;;;;;;4.43;1.98;;;26.00;99.90;;;;;;5033543;28;20052;-71
2022/10/16 11:03:46;;;;;;;8.60;2.05;;;25.20;99.90;;;;;;5034052;28;20034;-71
2022/10/16 11:06:24;;;;;;;3.97;1.50;;;24.60;99.90;;;;;;5033566;28;20039;-71
2022/10/16 11:09:09;;;;;;;4.43;1.63;;;24.20;99.90;;;;;;5034735;28;20028;-70
2022/10/16 11:11:46;;;;;;;4.93;2.10;;;23.80;99.90;;;;;;5035579;28;20165;-71
2022/10/16 11:14:11;;;;;;;4.57;1.90;;;23.80;99.90;;;;;;5035676;28;20037;-70
2022/10/16 11:16:40;;;;;;;;;;;23.90;99.90;;;;;;5035116;28;20021;-71
2022/10/16 11:19:38;;;;;;;3.13;1.80;;;23.90;99.90;;;;;;5034364;28;20385;-70
2022/10/16 11:22:22;;;;;;;5.82;1.60;;;23.80;99.90;;;;;;5034179;28;20080;-70
2022/10/16 11:25:23;;;;;;;2.47;1.50;;;23.80;99.90;;;;;;5034193;28;20116;-70
2022/10/16 11:28:09;;;;;;;4.00;1.20;;;23.80;99.90;;;;;;5035735;28;20021;-70
2022/10/16 11:30:44;;;;;;;5.35;1.40;;;23.80;99.90;;;;;;5037659;28;20033;-70
2022/10/16 11:33:18;;;;;;;4.20;1.70;;;23.60;99.90;;;;;;5034096;28;20037;-69
2022/10/16 11:36:20;;;;;;;2.03;1.50;;;23.70;99.90;;;;;;5032409;28;20474;-69
2022/10/16 11:39:20;;;;;;;3.85;1.48;;;23.70;99.90;;;;;;5032104;28;20101;-69
2022/10/16 11:42:29;;;;;;;5.53;1.60;;;23.70;99.90;;;;;;5033177;28;20021;-69
2022/10/16 11:45:13;;;;;;;6.60;1.73;;;23.60;99.90;;;;;;5032811;28;20026;-70
2022/10/16 11:47:50;;;;;;;3.63;1.83;;;23.30;99.90;;;;;;5033157;28;20036;-70
2022/10/16 11:50:41;;;;;;;7.22;2.17;;;23.30;99.90;;;;;;5033108;28;20033;-70
2022/10/16 11:53:29;;;;;;;6.13;2.95;;;23.20;99.90;;;;;;5032787;28;20040;-70
2022/10/16 11:55:54;;;;;;;4.70;1.80;;;23.30;99.90;;;;;;5033127;28;20481;-70
2022/10/16 11:58:33;;;;;;;3.83;1.67;;;23.20;99.90;;;;;;5031569;28;20025;-70
2022/10/16 12:01:04;;;;;;;2.53;1.35;;;23.20;99.90;;;;;;5033328;28;20025;-70
2022/10/16 12:03:39;;;;;;;2.75;1.50;;;23.40;99.90;;;;;;5033184;28;20092;-70
2022/10/16 12:06:31;;;;;;;4.28;1.50;;;23.50;99.90;;;;;;5032702;28;20025;-71
2022/10/16 12:09:00;;;;;;;5.20;1.48;;;23.40;99.90;;;;;;5033012;28;20037;-70
2022/10/16 12:11:28;;;;;;;3.85;1.80;;;23.30;99.90;;;;;;5032703;28;20056;-70
2022/10/16 12:14:11;;;;;;;4.47;1.67;;;23.30;99.90;;;;;;5031528;28;20076;-70
2022/10/16 12:16:56;;;;;;;3.83;1.45;;;23.30;99.90;;;;;;5032872;28;20143;-71
2022/10/16 12:19:23;;;;;;;3.15;1.30;;;23.50;99.90;;;;;;5034897;28;20018;-71
2022/10/16 12:21:50;;;;;;;7.82;1.95;;;23.60;99.90;;;;;;5033166;28;20022;-71
2022/10/16 12:24:33;;;;;;;3.03;1.50;;;23.60;99.90;;;;;;5033276;28;20493;-71
2022/10/16 12:26:59;;;;;;;4.47;1.58;;;23.20;99.90;;;;;;5032724;28;20116;-70
2022/10/16 12:29:35;;;;;;;;;;;23.10;99.90;;;;;;5037035;28;20025;-70
2022/10/16 12:32:03;;;;;;;5.75;1.80;;;23.00;99.90;;;;;;5036474;28;19927;-70
2022/10/16 12:34:45;;;;;;;4.07;1.75;;;22.80;99.90;;;;;;5036760;28;20017;-70
2022/10/16 12:37:24;;;;;;;6.45;1.65;;;22.60;99.90;;;;;;5036984;28;20041;-71
2022/10/16 12:39:53;;;;;;;3.72;2.10;;;22.50;99.90;;;;;;5036557;28;20026;-70
2022/10/16 12:42:27;;;;;;;4.60;1.60;;;22.60;99.90;;;;;;5035122;28;20379;-71
2022/10/16 12:44:54;;;;;;;5.25;2.20;;;22.60;99.90;;;;;;5036330;28;20124;-70
2022/10/16 12:47:36;;;;;;;3.78;1.45;;;22.70;99.90;;;;;;5034795;28;20091;-69
2022/10/16 12:50:02;;;;;;;3.38;1.45;;;22.70;99.90;;;;;;5036194;28;20022;-70
2022/10/16 12:52:33;;;;;;;3.72;1.70;;;22.70;99.90;;;;;;5034055;28;20033;-70
2022/10/16 12:55:00;;;;;;;4.10;1.52;;;22.50;99.90;;;;;;5035835;28;20109;-70
2022/10/16 12:57:43;;;;;;;6.25;1.85;;;22.50;99.90;;;;;;5035456;28;20018;-70
2022/10/16 13:00:18;;;;;;;3.05;1.75;;;22.60;99.90;;;;;;5034250;28;20428;-70
2022/10/16 13:02:58;;;;;;;4.57;1.67;;;22.60;99.90;;;;;;5035819;28;20021;-70
2022/10/16 13:05:33;;;;;;;5.45;2.40;;;22.60;99.90;;;;;;5034242;28;20089;-70
2022/10/16 13:08:27;;;;;;;5.00;1.67;;;22.40;99.90;;;;;;5034662;28;20026;-70
2022/10/16 13:11:05;;;;;;;5.80;2.08;;;22.30;99.90;;;;;;5036784;28;20034;-71